createdAt,value
2023-03-07T00:00:34.698Z,86.65
2023-03-07T00:05:38.537Z,87.48
2023-03-07T00:10:42.935Z,88.67
2023-03-07T00:15:48.597Z,86.80
2023-03-07T00:20:58.955Z,88.96
2023-03-07T00:26:05.213Z,87.13
2023-03-07T00:31:10.612Z,86.80
2023-03-07T00:36:17.120Z,86.14
2023-03-07T00:41:22.366Z,84.11
2023-03-07T00:46:28.770Z,83.83
2023-03-07T00:51:32.492Z,83.84
2023-03-07T00:56:37.069Z,85.26
2023-03-07T01:01:45.973Z,85.08
2023-03-07T01:06:50.521Z,87.86
2023-03-07T01:11:54.210Z,90.16
2023-03-07T01:16:59.855Z,89.04
2023-03-07T01:22:03.582Z,90.09
2023-03-07T01:27:07.360Z,87.18
2023-03-07T01:32:14.098Z,89.49
2023-03-07T01:37:18.556Z,90.63
2023-03-07T01:42:23.163Z,87.62
2023-03-07T01:47:28.821Z,89.29
2023-03-07T01:52:35.388Z,90.01
2023-03-07T01:57:42.304Z,90.81
2023-03-07T02:02:55.148Z,91.25
2023-03-07T02:08:02.779Z,92.55
2023-03-07T02:13:07.434Z,93.41
2023-03-07T02:18:17.037Z,93.59
2023-03-07T02:23:28.173Z,93.60
2023-03-07T02:28:34.463Z,91.39
2023-03-07T02:33:37.777Z,94.24
2023-03-07T02:38:45.450Z,92.99
2023-03-07T02:43:50.999Z,88.77
2023-03-07T02:48:54.658Z,90.41
2023-03-07T02:53:58.365Z,89.70
2023-03-07T02:59:05.858Z,89.44
2023-03-07T03:04:09.718Z,89.75
2023-03-07T03:09:13.840Z,91.81
2023-03-07T03:14:19.265Z,90.63
2023-03-07T03:19:22.925Z,90.62
2023-03-07T03:24:27.364Z,91.09
2023-03-07T03:29:34.099Z,90.29
2023-03-07T03:34:38.292Z,90.21
2023-03-07T03:39:42.279Z,90.42
2023-03-07T03:44:48.372Z,90.12
2023-03-07T03:49:54.150Z,90.43
2023-03-07T03:54:58.034Z,89.74
2023-03-07T04:00:04.890Z,89.98
2023-03-07T04:05:10.342Z,89.96
2023-03-07T04:10:14.310Z,89.88
2023-03-07T04:15:20.090Z,92.10
2023-03-07T04:20:25.106Z,91.74
2023-03-07T04:25:28.822Z,90.54
2023-03-07T04:30:34.100Z,90.78
2023-03-07T04:35:38.272Z,90.53
2023-03-07T04:40:42.384Z,90.51
2023-03-07T04:45:47.704Z,90.92
2023-03-07T04:50:51.565Z,90.73
2023-03-07T04:55:59.181Z,92.06
2023-03-07T05:01:05.731Z,91.30
2023-03-07T05:06:13.495Z,91.21
2023-03-07T05:11:17.198Z,91.51
2023-03-07T05:16:22.560Z,90.87
2023-03-07T05:26:29.951Z,91.00
2023-03-07T05:31:35.308Z,89.62
2023-03-07T05:36:38.954Z,90.56
2023-03-07T05:41:42.771Z,90.57
2023-03-07T05:46:48.114Z,89.94
2023-03-07T05:51:51.794Z,90.18
2023-03-07T05:56:55.403Z,90.16
2023-03-07T06:02:00.697Z,90.50
2023-03-07T06:07:04.408Z,89.94
2023-03-07T06:12:09.044Z,90.05
2023-03-07T06:17:14.346Z,89.96
2023-03-07T06:22:17.963Z,89.74
2023-03-07T06:27:21.636Z,90.00
2023-03-07T06:32:27.098Z,89.71
2023-03-07T06:37:30.766Z,89.85
2023-03-07T06:42:34.401Z,89.35
2023-03-07T06:47:39.753Z,90.09
2023-03-07T06:52:43.416Z,90.08
2023-03-07T06:57:47.502Z,89.93
2023-03-07T07:02:53.064Z,89.77
2023-03-07T07:07:56.740Z,89.91
2023-03-07T07:13:00.465Z,89.16
2023-03-07T07:18:05.852Z,89.72
2023-03-07T07:23:09.508Z,89.75
2023-03-07T07:28:13.177Z,89.83
2023-03-07T07:33:18.895Z,90.01
2023-03-07T07:38:22.667Z,90.54
2023-03-07T07:43:26.418Z,90.88
2023-03-07T07:48:31.922Z,90.80
2023-03-07T07:53:35.657Z,90.30
2023-03-07T07:58:39.290Z,89.60
2023-03-07T08:03:44.937Z,88.86
2023-03-07T08:08:48.663Z,88.53
2023-03-07T08:13:52.311Z,88.24
2023-03-07T08:18:58.273Z,88.13
2023-03-07T08:24:01.925Z,87.90
2023-03-07T08:29:05.553Z,88.31
2023-03-07T08:34:10.831Z,87.85
2023-03-07T08:39:14.936Z,86.91
2023-03-07T08:44:18.570Z,86.47
2023-03-07T08:49:23.914Z,86.70
2023-03-07T08:54:29.110Z,86.64
2023-03-07T08:59:33.477Z,86.46
2023-03-07T09:04:38.979Z,86.65
2023-03-07T09:09:42.774Z,86.30
2023-03-07T09:14:46.444Z,86.93
2023-03-07T09:19:51.760Z,87.00
2023-03-07T09:24:55.414Z,87.08
2023-03-07T09:29:59.024Z,86.27
2023-03-07T09:35:04.673Z,86.04
2023-03-07T09:40:12.948Z,86.33
2023-03-07T09:45:36.134Z,86.63
2023-03-07T09:50:50.963Z,86.28
2023-03-07T09:55:57.985Z,85.63
2023-03-07T10:01:01.941Z,85.79
2023-03-07T10:06:15.128Z,85.78
2023-03-07T10:11:29.892Z,86.19
2023-03-07T10:16:39.983Z,85.66
2023-03-07T10:21:59.040Z,86.43
2023-03-07T10:27:06.042Z,85.27
2023-03-07T10:32:22.918Z,85.33
2023-03-07T10:37:43.681Z,86.30
2023-03-07T10:42:47.560Z,86.42
2023-03-07T10:47:51.212Z,86.66
2023-03-07T10:52:59.089Z,87.00
2023-03-07T10:58:17.869Z,86.34
2023-03-07T11:03:27.462Z,85.68
2023-03-07T11:08:35.176Z,86.11
2023-03-07T11:13:39.272Z,86.32
2023-03-07T11:18:44.212Z,86.40
2023-03-07T11:24:00.502Z,86.20
2023-03-07T11:29:08.939Z,85.25
2023-03-07T11:34:36.202Z,83.97
2023-03-07T11:39:49.158Z,84.82
2023-03-07T11:44:55.091Z,85.23
2023-03-07T11:50:14.529Z,85.36
2023-03-07T11:55:29.695Z,84.93
2023-03-07T12:00:37.590Z,85.45
2023-03-07T12:05:57.591Z,86.17
2023-03-07T12:11:15.519Z,86.80
2023-03-07T12:16:24.555Z,87.33
2023-03-07T12:21:49.630Z,85.81
2023-03-07T12:27:01.288Z,86.41
2023-03-07T12:32:10.155Z,86.88
2023-03-07T12:37:20.800Z,86.78
2023-03-07T12:42:36.048Z,86.93
2023-03-07T12:47:56.463Z,87.16
2023-03-07T12:53:04.937Z,87.38
2023-03-07T12:58:20.232Z,87.73
2023-03-07T13:03:35.082Z,87.52
2023-03-07T13:08:40.719Z,87.36
2023-03-07T13:13:58.758Z,88.24
2023-03-07T13:19:34.620Z,87.04
2023-03-07T13:24:39.423Z,86.83
2023-03-07T13:30:17.819Z,88.08
2023-03-07T13:35:55.578Z,86.40
2023-03-07T13:41:01.152Z,87.76
2023-03-07T13:46:27.003Z,87.94
2023-03-07T13:51:30.785Z,87.78
2023-03-07T13:56:41.076Z,88.88
2023-03-07T14:01:49.742Z,89.79
2023-03-07T14:06:56.214Z,89.30
2023-03-07T14:12:08.352Z,89.63
2023-03-07T14:17:29.772Z,90.33
2023-03-07T14:22:55.458Z,91.72
2023-03-07T14:28:00.379Z,90.86
2023-03-07T14:33:05.709Z,90.96
2023-03-07T14:38:16.655Z,91.66
2023-03-07T14:43:37.551Z,90.63
2023-03-07T14:49:02.122Z,90.24
2023-03-07T14:54:13.204Z,90.99
2023-03-07T14:59:28.009Z,91.04
2023-03-07T15:04:34.453Z,89.81
2023-03-07T15:09:38.177Z,89.51
2023-03-07T15:14:45.725Z,89.24
2023-03-07T15:19:55.853Z,89.03
2023-03-07T15:24:59.703Z,88.44
2023-03-07T15:30:04.662Z,87.50
2023-03-07T15:35:19.066Z,86.68
2023-03-07T15:40:29.572Z,86.93
2023-03-07T15:45:34.983Z,86.61
2023-03-07T15:50:40.411Z,86.87
2023-03-07T15:55:46.024Z,88.27
2023-03-07T16:00:49.720Z,87.48
2023-03-07T16:05:56.271Z,86.11
2023-03-07T16:11:03.091Z,85.99
2023-03-07T16:16:16.482Z,86.51
2023-03-07T16:21:22.067Z,87.93
2023-03-07T16:26:26.194Z,87.94
2023-03-07T16:31:29.923Z,88.94
2023-03-07T16:36:36.162Z,89.97
2023-03-07T16:41:43.701Z,89.39
2023-03-07T16:46:52.243Z,91.14
2023-03-07T16:52:05.590Z,89.63
2023-03-07T16:57:15.578Z,88.91
2023-03-07T17:02:21.427Z,89.91
2023-03-07T17:07:26.810Z,90.35
2023-03-07T17:12:30.536Z,91.64
2023-03-07T17:17:36.616Z,92.49
2023-03-07T17:22:41.987Z,91.46
2023-03-07T17:27:49.417Z,92.32
2023-03-07T17:32:53.936Z,92.24
2023-03-07T17:37:59.203Z,92.09
2023-03-07T17:43:02.872Z,91.86
2023-03-07T17:48:09.032Z,93.22
2023-03-07T17:53:14.321Z,93.01
2023-03-07T17:58:17.983Z,93.78
2023-03-07T18:03:22.276Z,91.13
2023-03-07T18:08:27.617Z,94.29
2023-03-07T18:13:31.374Z,90.62
2023-03-07T18:18:36.332Z,82.66
2023-03-07T18:23:41.704Z,86.08
2023-03-07T18:28:47.023Z,92.29
2023-03-07T18:33:51.084Z,86.70
2023-03-07T18:38:56.381Z,88.21
2023-03-07T18:44:00.140Z,84.08
2023-03-07T18:49:03.737Z,80.29
2023-03-07T18:54:09.090Z,75.25
2023-03-07T18:59:12.710Z,71.81
2023-03-07T19:04:16.650Z,70.13
2023-03-07T19:09:21.996Z,66.02
2023-03-07T19:14:25.677Z,64.50
2023-03-07T19:19:29.326Z,62.09
2023-03-07T19:24:34.848Z,62.49
2023-03-07T19:29:38.445Z,62.51
2023-03-07T19:34:42.053Z,63.29
2023-03-07T19:39:47.304Z,61.25
2023-03-07T19:44:50.920Z,61.96
2023-03-07T19:49:54.528Z,60.12
2023-03-07T19:54:59.781Z,55.15
2023-03-07T20:00:03.572Z,57.32
2023-03-07T20:05:07.934Z,57.15
2023-03-07T20:10:13.876Z,56.82
2023-03-07T20:15:17.664Z,57.36
2023-03-07T20:20:21.361Z,56.37
2023-03-07T20:25:29.392Z,56.39
2023-03-07T20:30:33.019Z,57.94
2023-03-07T20:35:36.678Z,56.22
2023-03-07T20:40:42.015Z,56.41
2023-03-07T20:45:45.653Z,55.66
2023-03-07T20:50:49.298Z,55.90
2023-03-07T20:55:54.602Z,52.96
2023-03-07T21:00:58.492Z,56.46
2023-03-07T21:06:03.666Z,55.51
2023-03-07T21:11:21.289Z,54.83
2023-03-07T21:16:25.442Z,55.36
2023-03-07T21:21:30.340Z,55.08
2023-03-07T21:26:36.869Z,53.80
2023-03-07T21:31:40.542Z,54.41
2023-03-07T21:36:44.299Z,54.82
2023-03-07T21:41:49.595Z,51.89
2023-03-07T21:46:53.228Z,50.79
2023-03-07T21:51:56.870Z,53.07
2023-03-07T21:57:02.176Z,52.40
2023-03-07T22:02:05.811Z,49.86
2023-03-07T22:07:09.442Z,51.73
2023-03-07T22:12:14.727Z,51.75
2023-03-07T22:17:18.374Z,52.17
2023-03-07T22:22:22.282Z,52.56
2023-03-07T22:27:27.607Z,50.91
2023-03-07T22:32:31.334Z,51.25
2023-03-07T22:37:34.973Z,51.46
2023-03-07T22:42:40.322Z,49.87
2023-03-07T22:47:43.971Z,50.72
2023-03-07T22:52:47.651Z,51.83
2023-03-07T22:57:52.935Z,51.38
2023-03-07T23:02:56.603Z,49.32
2023-03-07T23:08:00.318Z,50.60
2023-03-07T23:13:05.628Z,49.47
2023-03-07T23:18:09.618Z,48.29
2023-03-07T23:23:13.268Z,50.12
2023-03-07T23:28:18.579Z,49.66
2023-03-07T23:33:22.197Z,50.05
2023-03-07T23:38:25.818Z,51.02
2023-03-07T23:43:31.082Z,49.23
2023-03-07T23:48:34.767Z,51.47
2023-03-07T23:53:38.615Z,53.15
2023-03-07T23:58:44.390Z,53.36
